Time;durP1;ratioP1;P1;durP2;ratioP2;P2;SDS_P1;SDS_P2;PMS_P1;PMS_P2;Temp;Humidity;BMP_temperature;BMP_pressure;BME280_temperature;BME280_humidity;BME280_pressure;Samples;Min_cycle;Max_cycle;Signal;HPM_P1;HPM_P2
2021/12/24 00:00:26;;;;;;;2.22;1.40;;;7.10;84.00;;;;;;2079994;28;20253;-66
2021/12/24 00:01:27;;;;;;;3.83;1.50;;;7.10;84.10;;;;;;2079430;28;20185;-64
2021/12/24 00:02:28;;;;;;;4.80;1.70;;;7.20;84.30;;;;;;2080758;28;20198;-65
2021/12/24 00:03:29;;;;;;;2.77;1.63;;;7.20;84.20;;;;;;2080930;28;20177;-65
2021/12/24 00:04:30;;;;;;;2.72;1.48;;;7.20;84.10;;;;;;2080583;28;20176;-64
2021/12/24 00:05:31;;;;;;;2.43;1.27;;;7.20;83.70;;;;;;2083746;28;20214;-64
2021/12/24 00:06:32;;;;;;;1.80;1.45;;;7.30;83.60;;;;;;2080772;28;20193;-63
2021/12/24 00:07:33;;;;;;;1.97;1.30;;;7.30;84.60;;;;;;2080813;28;20666;-67
2021/12/24 00:08:35;;;;;;;1.88;1.33;;;7.20;83.30;;;;;;2080551;28;20215;-66
2021/12/24 00:09:37;;;;;;;3.08;1.38;;;7.20;83.40;;;;;;2083533;28;20200;-66
2021/12/24 00:10:39;;;;;;;1.65;1.20;;;7.30;83.20;;;;;;2080798;28;20656;-64
2021/12/24 00:11:40;;;;;;;1.55;1.25;;;7.30;82.90;;;;;;2083855;28;20187;-66
2021/12/24 00:12:47;;;;;;;4.40;1.53;;;7.30;82.80;;;;;;2080649;28;20183;-67
2021/12/24 00:13:50;;;;;;;1.42;1.15;;;7.30;82.90;;;;;;2079866;28;20471;-65
2021/12/24 00:14:55;;;;;;;2.40;1.48;;;7.30;82.50;;;;;;2080061;28;20177;-65
2021/12/24 00:17:05;;;;;;;2.67;1.70;;;7.40;82.00;;;;;;2080626;28;20212;-67
2021/12/24 00:18:23;;;;;;;3.15;1.58;;;7.40;81.90;;;;;;2080421;28;20248;-66
2021/12/24 00:21:33;;;;;;;2.45;1.42;;;7.40;82.20;;;;;;2080641;28;20541;-65
2021/12/24 00:22:24;;;;;;;2.47;1.42;;;7.40;82.10;;;;;;2080559;28;20803;-68
2021/12/24 00:35:31;;;;;;;2.50;1.60;;;7.40;81.40;;;;;;2083750;28;20684;-65
2021/12/24 00:36:32;;;;;;;4.22;1.75;;;7.30;81.40;;;;;;2084406;28;20271;-64
2021/12/24 00:37:32;;;;;;;8.03;3.37;;;7.20;81.70;;;;;;2080672;28;20188;-63
2021/12/24 00:38:33;;;;;;;6.00;2.17;;;7.20;82.20;;;;;;2080557;28;20177;-64
2021/12/24 00:39:39;;;;;;;2.87;1.57;;;7.10;82.30;;;;;;2084509;28;20665;-63
2021/12/24 00:40:47;;;;;;;1.75;1.40;;;7.20;82.40;;;;;;2083234;28;20178;-67
2021/12/24 00:41:48;;;;;;;5.85;2.10;;;7.20;83.30;;;;;;2080642;28;20174;-69
2021/12/24 00:42:53;;;;;;;4.73;2.23;;;7.20;82.20;;;;;;2080641;28;20181;-66
2021/12/24 00:43:54;;;;;;;4.35;1.70;;;7.10;82.20;;;;;;2087543;28;20229;-67
2021/12/24 00:44:55;;;;;;;1.87;1.23;;;7.20;82.40;;;;;;2081104;28;20596;-67
2021/12/24 00:45:56;;;;;;;1.90;1.70;;;7.10;82.20;;;;;;2080615;28;20188;-67
2021/12/24 00:46:56;;;;;;;2.30;1.30;;;7.20;82.20;;;;;;2080482;28;20191;-66
2021/12/24 00:47:59;;;;;;;2.63;1.17;;;7.10;82.10;;;;;;2083775;28;20183;-66
2021/12/24 00:49:01;;;;;;;2.22;1.25;;;7.10;82.20;;;;;;2079864;28;20179;-66
2021/12/24 00:50:10;;;;;;;2.60;1.30;;;7.00;82.30;;;;;;2079947;28;20203;-67
2021/12/24 00:51:31;;;;;;;2.35;1.27;;;6.90;82.60;;;;;;2081334;28;20173;-65
2021/12/24 00:52:46;;;;;;;2.67;1.60;;;6.90;83.00;;;;;;2080725;28;20179;-67
2021/12/24 00:55:05;;;;;;;2.37;1.60;;;6.70;83.70;;;;;;2080480;28;20180;-67
2021/12/24 00:56:10;;;;;;;2.63;1.38;;;6.70;84.00;;;;;;2083886;28;20520;-69
2021/12/24 00:57:11;;;;;;;1.67;1.30;;;6.70;84.20;;;;;;2080547;28;20570;-69
2021/12/24 00:58:11;;;;;;;1.93;1.43;;;6.60;84.40;;;;;;2080785;28;20208;-69
2021/12/24 00:59:12;;;;;;;3.30;1.40;;;6.60;84.60;;;;;;2081270;28;20630;-69
2021/12/24 01:00:35;;;;;;;2.37;1.47;;;6.50;84.70;;;;;;2082266;28;20571;-67
2021/12/24 01:01:36;;;;;;;3.25;1.38;;;6.50;85.00;;;;;;2074651;28;20164;-74
2021/12/24 01:02:37;;;;;;;2.30;1.40;;;6.50;85.30;;;;;;2079963;28;20180;-74
2021/12/24 01:03:38;;;;;;;2.73;1.40;;;6.40;85.60;;;;;;2080621;28;20174;-68
2021/12/24 01:04:39;;;;;;;2.25;1.50;;;6.40;86.00;;;;;;2072426;28;20177;-68
2021/12/24 01:05:41;;;;;;;2.03;1.10;;;6.40;86.50;;;;;;2080569;28;20525;-67
2021/12/24 01:06:41;;;;;;;1.77;1.40;;;6.30;87.10;;;;;;2080657;28;20653;-67
2021/12/24 01:07:46;;;;;;;2.17;1.30;;;6.40;87.20;;;;;;2080626;28;20186;-68
2021/12/24 01:08:47;;;;;;;2.00;1.50;;;6.40;87.00;;;;;;2081057;28;20185;-67
2021/12/24 01:09:47;;;;;;;1.90;1.40;;;6.60;88.10;;;;;;2081032;28;20698;-67
2021/12/24 01:10:57;;;;;;;3.03;1.30;;;6.70;86.40;;;;;;2081173;28;20194;-67
2021/12/24 01:11:58;;;;;;;2.67;1.40;;;6.70;86.10;;;;;;2080212;28;20180;-67
2021/12/24 01:12:59;;;;;;;2.20;1.10;;;6.70;85.90;;;;;;2081199;28;20180;-67
2021/12/24 01:14:00;;;;;;;2.17;1.27;;;6.70;85.80;;;;;;2082077;28;20634;-68
2021/12/24 01:15:03;;;;;;;4.00;1.60;;;6.70;85.90;;;;;;2082315;28;20188;-67
2021/12/24 01:16:19;;;;;;;1.65;1.55;;;6.80;85.90;;;;;;2076451;28;20592;-67
2021/12/24 01:19:45;;;;;;;2.00;1.40;;;6.70;86.30;;;;;;2073991;28;20201;-67
2021/12/24 01:20:51;;;;;;;1.50;1.40;;;6.70;86.70;;;;;;2074457;28;20553;-67
2021/12/24 01:22:29;;;;;;;1.95;1.42;;;6.70;86.60;;;;;;2073489;28;20179;-68
2021/12/24 01:24:29;;;;;;;2.25;1.60;;;6.80;86.90;;;;;;2074398;28;20193;-68
2021/12/24 01:25:39;;;;;;;2.08;1.50;;;6.80;86.60;;;;;;2074454;28;20546;-68
2021/12/24 01:26:54;;;;;;;1.65;1.42;;;6.80;86.60;;;;;;2073841;28;20214;-68
2021/12/24 01:38:16;;;;;;;2.38;1.60;;;7.20;86.10;;;;;;2074037;28;20540;-68
2021/12/24 01:40:25;;;;;;;1.33;1.20;;;7.10;86.10;;;;;;2073647;28;20674;-68
2021/12/24 01:42:47;;;;;;;2.53;1.60;;;7.10;86.30;;;;;;2074355;28;20188;-68
2021/12/24 01:43:48;;;;;;;2.47;1.30;;;7.10;86.40;;;;;;2073806;28;20207;-67
2021/12/24 01:44:49;;;;;;;1.77;1.40;;;7.10;86.20;;;;;;2073599;28;20565;-67
2021/12/24 01:45:53;;;;;;;2.90;1.60;;;7.00;86.80;;;;;;2074211;28;20235;-68
2021/12/24 01:47:00;;;;;;;2.63;1.58;;;7.00;87.00;;;;;;2074189;28;20188;-68
2021/12/24 01:48:07;;;;;;;3.30;1.67;;;7.00;87.00;;;;;;2073701;28;20640;-67
2021/12/24 01:49:07;;;;;;;2.92;1.63;;;7.10;86.70;;;;;;2073666;28;20158;-68
2021/12/24 01:50:08;;;;;;;2.50;1.60;;;7.10;86.50;;;;;;2074302;28;20672;-67
2021/12/24 01:51:09;;;;;;;1.80;1.57;;;7.10;86.50;;;;;;2074155;28;20226;-68
2021/12/24 01:52:10;;;;;;;2.13;1.60;;;7.10;86.50;;;;;;2074267;28;20182;-67
2021/12/24 01:53:11;;;;;;;2.83;1.83;;;7.10;86.50;;;;;;2074188;28;20531;-68
2021/12/24 01:54:12;;;;;;;2.10;1.50;;;7.10;86.70;;;;;;2073564;28;20463;-67
2021/12/24 01:55:13;;;;;;;2.60;1.80;;;7.10;86.70;;;;;;2065392;28;20179;-68
2021/12/24 01:56:13;;;;;;;4.33;1.53;;;7.10;87.00;;;;;;2073628;28;20584;-68
2021/12/24 01:57:14;;;;;;;2.40;1.80;;;7.10;87.10;;;;;;2074101;28;20203;-68
2021/12/24 01:58:24;;;;;;;2.00;1.70;;;7.10;87.10;;;;;;2074275;28;20203;-68
2021/12/24 01:59:24;;;;;;;3.42;1.52;;;7.00;87.50;;;;;;2073510;28;20423;-68
2021/12/24 02:00:36;;;;;;;2.43;1.73;;;7.00;87.60;;;;;;2073613;28;20186;-68
2021/12/24 02:01:37;;;;;;;2.03;1.45;;;7.00;87.80;;;;;;2073454;28;20208;-67
2021/12/24 02:02:38;;;;;;;3.08;1.52;;;7.00;87.50;;;;;;2073629;28;20171;-68
2021/12/24 02:03:39;;;;;;;4.10;1.77;;;7.00;87.80;;;;;;2073508;28;20263;-68
2021/12/24 02:04:39;;;;;;;2.03;1.60;;;7.00;87.80;;;;;;2073515;28;20178;-67
2021/12/24 02:05:42;;;;;;;4.10;1.77;;;7.00;87.60;;;;;;2073973;28;20174;-68
2021/12/24 02:06:44;;;;;;;2.35;1.70;;;7.00;87.90;;;;;;2074094;28;20518;-68
2021/12/24 02:07:46;;;;;;;2.72;1.85;;;7.00;88.30;;;;;;2073384;28;20199;-68
2021/12/24 02:08:47;;;;;;;3.30;1.85;;;7.00;88.20;;;;;;2073459;28;20220;-68
2021/12/24 02:09:48;;;;;;;2.50;1.70;;;7.00;87.80;;;;;;2073392;28;20205;-67
2021/12/24 02:10:50;;;;;;;2.40;1.63;;;7.00;87.80;;;;;;2074111;28;20640;-67
2021/12/24 02:11:52;;;;;;;2.55;1.52;;;7.00;87.80;;;;;;2074019;28;20178;-68
2021/12/24 02:12:54;;;;;;;2.17;1.50;;;7.00;88.00;;;;;;2073474;28;20180;-67
2021/12/24 02:13:55;;;;;;;1.98;1.77;;;7.00;88.10;;;;;;2073355;28;20191;-67
2021/12/24 02:14:59;;;;;;;2.63;1.70;;;7.00;88.50;;;;;;2074022;28;20254;-68
2021/12/24 02:16:10;;;;;;;3.17;1.45;;;7.00;88.40;;;;;;2073544;28;20221;-67
2021/12/24 02:29:15;;;;;;;4.70;1.83;;;7.00;88.50;;;;;;2082015;28;20169;-67
2021/12/24 02:30:19;;;;;;;2.23;1.60;;;7.00;88.80;;;;;;2082065;28;20565;-68
2021/12/24 02:31:24;;;;;;;4.65;1.80;;;6.90;88.60;;;;;;2082113;28;20174;-67
2021/12/24 02:32:25;;;;;;;1.65;1.27;;;6.90;89.10;;;;;;2082091;28;20166;-68
2021/12/24 02:33:26;;;;;;;2.00;1.60;;;7.00;89.10;;;;;;2082071;28;20185;-68
2021/12/24 02:34:27;;;;;;;2.40;1.70;;;6.90;88.90;;;;;;2081851;28;20466;-68
2021/12/24 02:35:28;;;;;;;1.60;1.37;;;6.90;89.00;;;;;;2081916;28;20182;-68
2021/12/24 02:36:28;;;;;;;2.30;1.63;;;6.90;89.00;;;;;;2081989;28;20181;-68
2021/12/24 02:37:29;;;;;;;3.27;1.60;;;6.90;89.00;;;;;;2082106;28;20262;-68
2021/12/24 02:38:30;;;;;;;2.80;1.67;;;6.90;89.50;;;;;;2081941;28;20187;-68
2021/12/24 02:39:31;;;;;;;4.33;1.63;;;6.80;90.00;;;;;;2081921;28;20698;-68
2021/12/24 02:40:32;;;;;;;3.17;1.50;;;6.90;89.70;;;;;;2081906;28;20174;-68
2021/12/24 02:41:32;;;;;;;3.20;1.65;;;6.90;90.10;;;;;;2082143;28;20190;-68
2021/12/24 02:42:35;;;;;;;3.30;1.43;;;6.90;90.00;;;;;;2082078;28;20667;-68
2021/12/24 02:43:37;;;;;;;1.88;1.65;;;6.90;89.90;;;;;;2081973;28;20229;-68
2021/12/24 02:44:38;;;;;;;1.63;1.33;;;6.90;89.50;;;;;;2081721;28;20176;-67
2021/12/24 02:45:41;;;;;;;3.33;1.60;;;6.90;89.40;;;;;;2081335;28;20189;-67
2021/12/24 02:53:59;;;;;;;3.58;1.95;;;7.00;89.60;;;;;;2080083;28;20664;-68
2021/12/24 02:55:00;;;;;;;3.60;1.50;;;7.00;89.40;;;;;;2081171;28;20610;-67
2021/12/24 02:56:02;;;;;;;2.37;1.60;;;7.00;89.20;;;;;;2081355;28;20203;-67
2021/12/24 02:57:09;;;;;;;2.17;1.45;;;7.00;89.10;;;;;;2081870;28;20177;-68
2021/12/24 02:58:10;;;;;;;2.00;1.60;;;7.00;89.40;;;;;;2081911;28;20248;-68
2021/12/24 02:59:13;;;;;;;2.33;1.25;;;6.90;89.90;;;;;;2081906;28;20187;-67
2021/12/24 03:00:19;;;;;;;2.75;1.80;;;7.00;89.80;;;;;;2081891;28;20206;-67
2021/12/24 03:01:28;;;;;;;2.90;1.98;;;7.00;89.60;;;;;;2081821;28;20191;-68
2021/12/24 03:02:32;;;;;;;3.22;1.88;;;7.00;89.20;;;;;;2081948;28;20193;-68
2021/12/24 03:03:33;;;;;;;2.22;1.67;;;7.00;89.40;;;;;;2081792;28;20175;-68
2021/12/24 03:04:33;;;;;;;2.73;1.53;;;7.00;89.50;;;;;;2081729;28;20177;-67
2021/12/24 03:05:34;;;;;;;2.27;1.87;;;7.00;89.30;;;;;;2081603;28;20427;-68
2021/12/24 03:06:39;;;;;;;2.23;1.40;;;6.90;89.50;;;;;;2078128;28;20305;-68
2021/12/24 03:07:42;;;;;;;1.48;1.20;;;6.90;90.00;;;;;;2073053;28;20201;-67
2021/12/24 03:08:43;;;;;;;1.50;1.30;;;6.90;89.90;;;;;;2073143;28;20183;-67
2021/12/24 03:09:44;;;;;;;1.70;1.30;;;6.90;89.80;;;;;;2072932;28;20203;-68
2021/12/24 03:10:44;;;;;;;1.63;1.43;;;6.90;89.90;;;;;;2073102;28;20197;-68
2021/12/24 03:11:48;;;;;;;2.50;1.57;;;6.90;90.50;;;;;;2075036;28;20197;-67
2021/12/24 03:12:51;;;;;;;2.42;1.80;;;6.90;90.00;;;;;;2074908;28;20209;-68
2021/12/24 03:13:53;;;;;;;4.95;1.40;;;6.80;90.10;;;;;;2073221;28;20183;-67
2021/12/24 03:14:54;;;;;;;3.22;1.50;;;6.80;90.30;;;;;;2073163;28;20181;-67
2021/12/24 03:15:57;;;;;;;2.53;1.70;;;6.80;90.30;;;;;;2073757;28;20649;-67
2021/12/24 03:17:01;;;;;;;3.15;1.80;;;6.80;90.30;;;;;;2073299;28;20177;-67
2021/12/24 03:18:01;;;;;;;2.90;1.48;;;6.80;90.30;;;;;;2073337;28;20226;-67
2021/12/24 03:19:04;;;;;;;1.73;1.40;;;6.80;90.30;;;;;;2073659;28;20181;-67
2021/12/24 03:20:09;;;;;;;2.35;1.48;;;6.80;90.20;;;;;;2073497;28;20224;-68
2021/12/24 03:21:16;;;;;;;1.85;1.40;;;6.80;90.20;;;;;;2073674;28;20293;-67
2021/12/24 03:22:47;;;;;;;1.55;1.40;;;6.80;90.30;;;;;;2073547;28;20656;-67
2021/12/24 03:25:04;;;;;;;2.00;1.60;;;6.90;90.10;;;;;;2073532;28;20640;-67
2021/12/24 03:26:09;;;;;;;2.25;1.40;;;6.90;90.10;;;;;;2073130;28;20204;-67
2021/12/24 03:27:09;;;;;;;3.05;1.70;;;6.90;90.10;;;;;;2073419;28;20174;-67
2021/12/24 03:28:10;;;;;;;4.07;1.63;;;6.90;90.20;;;;;;2073460;28;20175;-68
2021/12/24 03:29:13;;;;;;;1.83;1.47;;;6.90;90.20;;;;;;2073390;28;20174;-67
2021/12/24 03:30:13;;;;;;;1.98;1.45;;;6.90;90.10;;;;;;2073067;28;20182;-67
2021/12/24 03:31:14;;;;;;;2.00;1.40;;;6.90;90.20;;;;;;2072857;28;20179;-67
2021/12/24 03:32:15;;;;;;;1.50;1.40;;;6.80;90.30;;;;;;2073488;28;20221;-67
2021/12/24 03:33:15;;;;;;;2.27;1.60;;;6.80;90.30;;;;;;2073391;28;20187;-68
2021/12/24 03:34:20;;;;;;;2.20;1.50;;;6.80;90.50;;;;;;2073443;28;20214;-67
2021/12/24 03:35:21;;;;;;;3.15;1.48;;;6.90;90.40;;;;;;2073203;28;20182;-67
2021/12/24 03:36:23;;;;;;;4.17;1.83;;;6.90;90.20;;;;;;2072634;28;20180;-68
2021/12/24 03:37:24;;;;;;;3.35;2.10;;;6.90;90.10;;;;;;2073312;28;20255;-68
2021/12/24 03:38:25;;;;;;;1.73;1.40;;;6.90;90.10;;;;;;2073411;28;20678;-67
2021/12/24 03:39:25;;;;;;;2.00;1.50;;;6.90;90.20;;;;;;2073326;28;20170;-67
2021/12/24 03:40:26;;;;;;;2.27;1.70;;;6.90;90.10;;;;;;2073473;28;20174;-67
2021/12/24 03:41:27;;;;;;;2.27;1.50;;;6.90;90.10;;;;;;2072715;28;20209;-67
2021/12/24 03:42:28;;;;;;;2.20;1.50;;;6.90;90.10;;;;;;2072962;28;20166;-68
2021/12/24 03:43:28;;;;;;;2.67;1.60;;;6.90;90.10;;;;;;2073285;28;20650;-67
2021/12/24 03:44:38;;;;;;;3.73;1.60;;;6.90;90.10;;;;;;2073236;28;20173;-67
2021/12/24 03:45:59;;;;;;;2.28;1.60;;;6.90;90.20;;;;;;2073361;28;20169;-68
2021/12/24 03:47:13;;;;;;;4.25;1.85;;;6.80;90.20;;;;;;2073308;28;20175;-68
2021/12/24 03:48:21;;;;;;;2.17;1.50;;;6.90;90.20;;;;;;2073418;28;20208;-67
2021/12/24 03:49:34;;;;;;;3.67;1.73;;;6.80;90.20;;;;;;2073194;28;20658;-67
2021/12/24 03:50:51;;;;;;;2.20;1.40;;;6.80;90.40;;;;;;2072790;28;20185;-67
2021/12/24 03:52:01;;;;;;;2.60;1.60;;;6.70;90.40;;;;;;2073001;28;20192;-68
2021/12/24 03:53:06;;;;;;;2.50;1.48;;;6.70;90.40;;;;;;2073388;28;20637;-67
2021/12/24 03:55:26;;;;;;;2.58;1.48;;;6.70;90.70;;;;;;2072745;28;20173;-67
2021/12/24 03:56:27;;;;;;;3.90;1.33;;;6.70;90.70;;;;;;2072818;28;20176;-67
2021/12/24 03:57:30;;;;;;;2.35;1.50;;;6.70;90.70;;;;;;2073298;28;20185;-67
2021/12/24 03:58:31;;;;;;;2.67;1.60;;;6.70;90.60;;;;;;2072646;28;20228;-67
2021/12/24 03:59:33;;;;;;;2.77;1.50;;;6.70;90.50;;;;;;2072641;28;20198;-67
2021/12/24 04:00:34;;;;;;;1.92;1.40;;;6.70;90.50;;;;;;2073279;28;20169;-67
2021/12/24 04:01:35;;;;;;;1.97;1.33;;;6.70;90.60;;;;;;2073209;28;20214;-68
2021/12/24 04:02:36;;;;;;;1.88;1.50;;;6.70;90.70;;;;;;2073266;28;20183;-68
2021/12/24 04:03:37;;;;;;;2.13;1.60;;;6.70;90.80;;;;;;2073428;28;20181;-67
2021/12/24 04:04:37;;;;;;;2.13;1.43;;;6.70;90.70;;;;;;2073062;28;20181;-67
2021/12/24 04:05:38;;;;;;;1.83;1.50;;;6.70;90.80;;;;;;2073090;28;20185;-67
2021/12/24 04:06:39;;;;;;;3.57;1.87;;;6.70;90.70;;;;;;2073207;28;20251;-67
2021/12/24 04:07:40;;;;;;;1.63;1.30;;;6.70;90.60;;;;;;2073242;28;20190;-68
2021/12/24 04:08:40;;;;;;;2.47;1.50;;;6.70;90.70;;;;;;2073207;28;20185;-67
2021/12/24 04:10:05;;;;;;;2.03;1.60;;;6.70;90.70;;;;;;2073235;28;20202;-68
2021/12/24 04:11:04;;;;;;;3.63;1.40;;;6.70;90.80;;;;;;2072177;28;20271;-68
2021/12/24 04:12:05;;;;;;;1.83;1.50;;;6.70;90.70;;;;;;2072881;28;20207;-67
2021/12/24 04:13:08;;;;;;;2.33;1.60;;;6.70;90.80;;;;;;2073039;28;20189;-68
2021/12/24 04:14:09;;;;;;;2.63;1.63;;;6.70;90.70;;;;;;2078474;28;20579;-67
2021/12/24 04:15:09;;;;;;;2.00;1.30;;;6.70;90.70;;;;;;2080608;28;20181;-68
2021/12/24 04:16:11;;;;;;;3.83;1.77;;;6.70;90.70;;;;;;2080697;28;20649;-67
2021/12/24 04:17:12;;;;;;;2.90;1.73;;;6.70;90.60;;;;;;2080654;28;20278;-68
2021/12/24 04:18:23;;;;;;;5.28;1.98;;;6.70;90.80;;;;;;2080847;28;20196;-67
2021/12/24 04:24:53;;;;;;;1.92;1.35;;;6.60;91.10;;;;;;2081401;28;20166;-67
2021/12/24 04:25:53;;;;;;;2.03;1.50;;;6.70;91.10;;;;;;2081387;28;20188;-67
2021/12/24 04:26:54;;;;;;;2.57;1.40;;;6.70;90.90;;;;;;2080582;28;20720;-67
2021/12/24 04:28:00;;;;;;;2.47;1.37;;;6.70;90.90;;;;;;2080845;28;20268;-68
2021/12/24 04:29:00;;;;;;;2.88;1.48;;;6.70;90.90;;;;;;2080778;28;20171;-68
2021/12/24 04:30:09;;;;;;;2.53;1.60;;;6.70;91.10;;;;;;2080708;28;20194;-68
2021/12/24 04:31:10;;;;;;;2.22;1.42;;;6.70;91.10;;;;;;2080700;28;20270;-68
2021/12/24 04:32:25;;;;;;;1.30;1.20;;;6.70;91.00;;;;;;2073288;28;20254;-68
2021/12/24 04:33:37;;;;;;;1.70;1.50;;;6.60;91.00;;;;;;2080667;28;20168;-67
2021/12/24 04:34:43;;;;;;;1.65;1.30;;;6.60;91.20;;;;;;2080824;28;20194;-67
2021/12/24 04:35:57;;;;;;;2.53;1.70;;;6.60;91.20;;;;;;2081274;28;20161;-68
2021/12/24 04:38:02;;;;;;;3.05;1.50;;;6.60;91.30;;;;;;2081217;28;20166;-68
2021/12/24 04:38:34;;;;;;;2.35;1.48;;;6.60;91.40;;;;;;2081015;28;20190;-67
2021/12/24 04:50:58;;;;;;;1.60;1.30;;;6.60;91.50;;;;;;2080619;28;20678;-68
2021/12/24 04:51:50;;;;;;;2.55;1.70;;;6.40;92.80;;;;;;2082816;28;20184;-67
2021/12/24 05:01:51;;;;;;;1.73;1.33;;;6.50;92.80;;;;;;2082910;28;20248;-68
2021/12/24 05:03:01;;;;;;;2.63;1.52;;;6.40;93.00;;;;;;2080520;28;20198;-67
2021/12/24 05:04:04;;;;;;;2.58;1.70;;;6.40;93.00;;;;;;2080604;28;20652;-68
2021/12/24 05:05:22;;;;;;;1.70;1.40;;;6.40;93.10;;;;;;2074455;28;20205;-68
2021/12/24 05:08:39;;;;;;;5.03;2.15;;;6.50;93.20;;;;;;2074703;28;20173;-68
2021/12/24 05:09:41;;;;;;;4.07;1.55;;;6.40;93.10;;;;;;2073839;28;20204;-68
2021/12/24 05:10:42;;;;;;;2.20;1.77;;;6.50;93.20;;;;;;2073964;28;20181;-68
2021/12/24 05:11:43;;;;;;;2.15;1.70;;;6.40;93.20;;;;;;2074093;28;20206;-68
2021/12/24 05:12:44;;;;;;;2.00;1.50;;;6.50;93.30;;;;;;2073966;28;20174;-68
2021/12/24 05:13:45;;;;;;;2.63;1.90;;;6.50;93.20;;;;;;2073953;28;20182;-67
2021/12/24 05:14:46;;;;;;;4.00;1.65;;;6.50;93.30;;;;;;2073644;28;20220;-68
2021/12/24 05:15:50;;;;;;;2.87;1.83;;;6.50;93.20;;;;;;2074536;28;20196;-68
2021/12/24 05:17:03;;;;;;;2.10;1.80;;;6.50;93.20;;;;;;2073903;28;20189;-68
2021/12/24 05:18:28;;;;;;;3.03;1.70;;;6.50;93.20;;;;;;2074095;28;20166;-68
2021/12/24 05:22:07;;;;;;;2.40;1.88;;;6.50;93.30;;;;;;2074579;28;20217;-68
2021/12/24 05:23:08;;;;;;;1.73;1.50;;;6.50;93.30;;;;;;2073871;28;20193;-68
2021/12/24 05:24:18;;;;;;;4.17;1.60;;;6.50;93.30;;;;;;2073920;28;20222;-67
2021/12/24 05:25:19;;;;;;;1.85;1.50;;;6.50;93.20;;;;;;2081958;28;20185;-68
2021/12/24 05:26:20;;;;;;;4.40;1.83;;;6.50;93.10;;;;;;2082082;28;20247;-68
2021/12/24 05:27:20;;;;;;;3.40;2.00;;;6.50;93.20;;;;;;2074379;28;20621;-68
2021/12/24 05:28:21;;;;;;;7.60;1.70;;;6.50;93.10;;;;;;2074473;28;20618;-68
2021/12/24 05:29:22;;;;;;;2.70;1.70;;;6.50;93.20;;;;;;2073726;28;20174;-68
2021/12/24 05:30:24;;;;;;;2.03;1.50;;;6.50;93.20;;;;;;2073901;28;20276;-68
2021/12/24 05:31:25;;;;;;;2.90;1.70;;;6.50;93.20;;;;;;2074375;28;20181;-67
2021/12/24 05:32:25;;;;;;;2.97;1.92;;;6.50;93.20;;;;;;2073821;28;20606;-68
2021/12/24 05:33:26;;;;;;;2.47;1.50;;;6.50;93.20;;;;;;2073795;28;20178;-67
2021/12/24 05:34:27;;;;;;;2.67;1.60;;;6.50;93.20;;;;;;2074322;28;20256;-68
2021/12/24 05:35:27;;;;;;;2.87;1.50;;;6.40;93.30;;;;;;2074265;28;20182;-68
2021/12/24 05:36:28;;;;;;;2.27;1.40;;;6.40;93.40;;;;;;2074267;28;20174;-67
2021/12/24 05:37:29;;;;;;;2.27;1.83;;;6.50;93.30;;;;;;2074357;28;20181;-68
2021/12/24 05:38:30;;;;;;;3.50;2.17;;;6.40;93.30;;;;;;2074298;28;20174;-68
2021/12/24 05:39:30;;;;;;;1.85;1.42;;;6.50;93.60;;;;;;2074310;28;20198;-68
2021/12/24 05:40:31;;;;;;;2.50;1.80;;;6.50;93.50;;;;;;2074333;28;20228;-67
2021/12/24 05:41:32;;;;;;;2.67;1.90;;;6.50;93.40;;;;;;2074273;28;20173;-68
2021/12/24 05:42:33;;;;;;;2.87;1.60;;;6.50;93.30;;;;;;2073730;28;20180;-67
2021/12/24 05:43:34;;;;;;;3.58;1.75;;;6.50;93.30;;;;;;2073700;28;20614;-67
2021/12/24 05:44:35;;;;;;;2.10;1.40;;;6.50;93.30;;;;;;2074202;28;20218;-67
2021/12/24 05:45:37;;;;;;;2.23;1.70;;;6.50;93.30;;;;;;2074299;28;20228;-67
2021/12/24 05:46:37;;;;;;;4.32;1.80;;;6.50;93.30;;;;;;2074078;28;20428;-67
2021/12/24 05:47:38;;;;;;;1.97;1.60;;;6.50;93.30;;;;;;2074289;28;20182;-67
2021/12/24 05:48:39;;;;;;;2.33;1.63;;;6.50;93.30;;;;;;2074419;28;20183;-67
2021/12/24 05:49:41;;;;;;;3.03;1.70;;;6.50;93.30;;;;;;2073626;28;20705;-67
2021/12/24 05:50:42;;;;;;;3.03;1.73;;;6.50;93.30;;;;;;2073651;28;20642;-67
2021/12/24 05:51:43;;;;;;;3.03;1.50;;;6.50;93.40;;;;;;2074334;28;20197;-67
2021/12/24 05:52:43;;;;;;;2.37;1.70;;;6.50;94.00;;;;;;2074177;28;20186;-66
2021/12/24 05:53:44;;;;;;;2.37;1.77;;;6.50;93.40;;;;;;2073694;28;20186;-67
2021/12/24 05:54:45;;;;;;;2.60;2.00;;;6.50;93.50;;;;;;2073487;28;20740;-67
2021/12/24 05:55:46;;;;;;;2.30;1.93;;;6.50;93.60;;;;;;2074266;28;20548;-67
2021/12/24 05:56:47;;;;;;;3.37;1.70;;;6.50;93.60;;;;;;2074091;28;20209;-68
2021/12/24 05:57:47;;;;;;;2.67;2.13;;;6.50;93.50;;;;;;2073541;28;20561;-67
2021/12/24 05:58:48;;;;;;;3.10;2.20;;;6.50;93.50;;;;;;2073434;28;20208;-67
2021/12/24 05:59:49;;;;;;;2.97;2.03;;;6.50;93.50;;;;;;2080881;28;20205;-67
2021/12/24 06:00:50;;;;;;;5.57;1.90;;;6.50;93.50;;;;;;2073508;28;20186;-67
2021/12/24 06:01:51;;;;;;;2.55;1.95;;;6.50;93.50;;;;;;2073510;28;20712;-67
2021/12/24 06:02:51;;;;;;;3.03;2.00;;;6.60;93.50;;;;;;2073482;28;20193;-67
2021/12/24 06:03:52;;;;;;;4.13;2.07;;;6.60;93.30;;;;;;2073600;28;20261;-67
2021/12/24 06:04:53;;;;;;;3.90;2.57;;;6.60;93.40;;;;;;2073960;28;20193;-68
2021/12/24 06:05:53;;;;;;;4.53;3.10;;;6.60;93.40;;;;;;2074061;28;20197;-67
2021/12/24 06:06:54;;;;;;;2.67;1.93;;;6.60;93.30;;;;;;2074100;28;20177;-68
2021/12/24 06:07:55;;;;;;;3.13;1.83;;;6.60;93.50;;;;;;2074153;28;20193;-67
2021/12/24 06:08:56;;;;;;;1.83;1.67;;;6.60;93.40;;;;;;2074061;28;20182;-68
2021/12/24 06:09:57;;;;;;;2.35;1.70;;;6.60;93.50;;;;;;2081637;28;20298;-67
2021/12/24 06:10:57;;;;;;;2.70;2.00;;;6.60;93.40;;;;;;2081647;28;20597;-68
2021/12/24 06:11:58;;;;;;;3.20;2.03;;;6.50;93.30;;;;;;2074141;28;20187;-67
2021/12/24 06:13:00;;;;;;;1.87;1.60;;;6.60;93.50;;;;;;2074100;28;20180;-67
2021/12/24 06:14:09;;;;;;;2.63;1.77;;;6.60;93.50;;;;;;2081538;28;20192;-68
2021/12/24 06:15:10;;;;;;;3.15;2.13;;;6.60;93.50;;;;;;2080538;28;20592;-67
2021/12/24 06:16:11;;;;;;;2.47;1.98;;;6.70;93.40;;;;;;2074062;28;20672;-68
2021/12/24 06:17:16;;;;;;;2.73;1.93;;;6.70;93.30;;;;;;2073993;28;20202;-67
2021/12/24 06:18:28;;;;;;;2.53;1.92;;;6.70;93.30;;;;;;2074093;28;20214;-67
2021/12/24 06:19:29;;;;;;;4.15;1.90;;;6.70;93.20;;;;;;2081357;28;20154;-68
2021/12/24 06:20:30;;;;;;;2.38;2.00;;;6.60;93.30;;;;;;2081430;28;20170;-68
2021/12/24 06:21:31;;;;;;;3.07;1.57;;;6.60;93.70;;;;;;2082276;28;20181;-67
2021/12/24 06:22:32;;;;;;;3.20;2.00;;;6.70;93.30;;;;;;2082234;28;20223;-68
2021/12/24 06:23:35;;;;;;;3.10;2.30;;;6.70;93.30;;;;;;2081548;28;20254;-68
2021/12/24 06:24:36;;;;;;;2.53;1.95;;;6.70;93.30;;;;;;2081427;28;20192;-67
2021/12/24 06:25:37;;;;;;;2.17;1.83;;;6.60;93.50;;;;;;2082155;28;20260;-67
2021/12/24 06:26:38;;;;;;;2.90;1.90;;;6.60;93.60;;;;;;2082112;28;20567;-67
2021/12/24 06:27:39;;;;;;;2.38;1.90;;;6.70;93.50;;;;;;2082144;28;20239;-67
2021/12/24 06:28:39;;;;;;;5.47;2.00;;;6.70;93.40;;;;;;2082145;28;20214;-67
2021/12/24 06:29:40;;;;;;;4.30;1.93;;;6.60;93.40;;;;;;2081983;28;20232;-67
2021/12/24 06:30:41;;;;;;;2.60;1.80;;;6.60;93.40;;;;;;2082100;28;20201;-67
2021/12/24 06:31:42;;;;;;;3.77;1.90;;;6.60;93.50;;;;;;2082141;28;20192;-67
2021/12/24 06:32:43;;;;;;;3.03;2.03;;;6.60;93.60;;;;;;2082066;28;20179;-67
2021/12/24 06:33:43;;;;;;;5.47;1.83;;;6.60;93.60;;;;;;2082163;28;20231;-67
2021/12/24 06:34:44;;;;;;;2.33;1.80;;;6.70;93.50;;;;;;2081717;28;20213;-67
2021/12/24 06:35:45;;;;;;;2.90;1.80;;;6.60;93.50;;;;;;2082120;28;20196;-67
2021/12/24 06:36:48;;;;;;;3.60;1.98;;;6.60;93.60;;;;;;2082022;28;20517;-67
2021/12/24 06:37:49;;;;;;;2.58;2.08;;;6.60;93.60;;;;;;2082036;28;20733;-68
2021/12/24 06:38:50;;;;;;;2.40;2.13;;;6.60;93.60;;;;;;2082030;28;20173;-67
2021/12/24 06:39:51;;;;;;;3.30;2.07;;;6.60;93.80;;;;;;2082024;28;20212;-67
2021/12/24 06:40:53;;;;;;;3.10;2.00;;;6.60;93.90;;;;;;2081969;28;20177;-67
2021/12/24 06:41:54;;;;;;;4.82;2.55;;;6.50;94.00;;;;;;2082131;28;20264;-68
2021/12/24 06:42:55;;;;;;;2.80;1.92;;;6.50;94.10;;;;;;2081459;28;20894;-67
2021/12/24 06:43:55;;;;;;;3.67;2.13;;;6.50;94.20;;;;;;2078505;28;20247;-67
2021/12/24 06:44:56;;;;;;;2.83;2.07;;;6.50;94.20;;;;;;2076101;28;20678;-68
2021/12/24 06:45:58;;;;;;;3.00;2.07;;;6.50;94.30;;;;;;2077148;28;20345;-67
2021/12/24 06:47:00;;;;;;;3.35;2.40;;;6.50;94.40;;;;;;2078064;28;20209;-67
2021/12/24 06:48:03;;;;;;;4.75;2.33;;;6.50;94.50;;;;;;2081963;28;20177;-67
2021/12/24 06:49:04;;;;;;;3.08;2.00;;;6.40;94.60;;;;;;2081835;28;20178;-67
2021/12/24 06:50:05;;;;;;;3.55;1.85;;;6.40;94.80;;;;;;2081892;28;20201;-67
2021/12/24 06:51:07;;;;;;;4.28;2.53;;;6.40;95.00;;;;;;2081811;28;20184;-67
2021/12/24 06:52:07;;;;;;;3.83;2.30;;;6.40;95.10;;;;;;2081381;28;20259;-68
2021/12/24 06:53:08;;;;;;;3.97;2.30;;;6.40;95.20;;;;;;2081270;28;20185;-68
2021/12/24 06:54:10;;;;;;;6.40;3.93;;;6.30;95.30;;;;;;2080180;28;20211;-67
2021/12/24 06:55:11;;;;;;;8.48;3.97;;;6.30;95.50;;;;;;2074229;28;20189;-68
2021/12/24 06:56:12;;;;;;;6.10;3.00;;;6.30;95.70;;;;;;2073329;28;20186;-68
2021/12/24 06:57:17;;;;;;;3.50;2.30;;;6.30;95.80;;;;;;2081034;28;20644;-67
2021/12/24 06:58:18;;;;;;;4.03;2.22;;;6.20;95.90;;;;;;2073830;28;20265;-67